Flight Track Log - Related Links

Times and Time Zones

All times are in EDT time to prevent confusion due to time zone crossing. See the JBU1475 flight status page for this flight to view local times or setup timezone preferences in your user account.


Time Position Orientation Groundspeed Altitude Reporting Facility
EDT Latitude Longitude Course Direction KTS MPH feet Rate Location/Type
Sun 08:26:37 PM 42.3500 -71.0167 289° West 161 185 700  Level KA90
Sun 08:27:07 PM 42.3333 -71.0000 144° Southeast 174 200 1,600 1,474 Climbing KA90
Sun 08:28:31 PM 42.3167 -70.8833 101° East 292 336 3,500 2,160 Climbing KA90
Sun 08:29:00 PM 42.5894 -70.8564 308° West  Level FlightAware Approximate
Sun 08:29:37 PM 42.3333 -70.7667 79° East 293 337 7,000  Level KA90
Sun 08:30:00 PM 42.6556 -70.9867 300° West  Level FlightAware Approximate
Sun 08:30:25 PM 42.4000 -70.7333 20° North 318 366 8,700  Level KA90
Sun 08:31:00 PM 42.7132 -71.1250 300° West  Level FlightAware Approximate
Sun 08:31:54 PM 42.5128 -70.7472 355° North 326 375 11,000  Level Boston Center
Sun 08:32:00 PM 42.7663 -71.2651 289° West  Level FlightAware Approximate
Sun 08:32:54 PM 42.5769 -70.8528 310° West 318 366 12,400  Level Boston Center
Sun 08:33:54 PM 42.6411 -70.9836 304° West 367 422 14,400 1,850 Climbing Boston Center
Sun 08:34:54 PM 42.6925 -71.0928 303° West 386 444 16,100 1,750 Climbing Boston Center
Sun 08:35:54 PM 42.7586 -71.2297 303° West 397 457 17,900 1,700 Climbing Boston Center
Sun 08:36:54 PM 42.7911 -71.3564 289° West 392 451 19,500 1,450 Climbing Boston Center
Sun 08:37:54 PM 42.8092 -71.5006 280° West 387 445 20,800 1,200 Climbing Boston Center
Sun 08:38:54 PM 42.8186 -71.6617 275° West 394 453 21,900 1,050 Climbing Boston Center
Sun 08:39:54 PM 42.8322 -71.8144 277° West 400 460 22,900 950 Climbing Boston Center
Sun 08:40:54 PM 42.8475 -71.9614 278° West 400 460 23,800 850 Climbing Boston Center
Sun 08:41:54 PM 42.8606 -72.1172 277° West 412 474 24,600 750 Climbing Boston Center
Sun 08:42:54 PM 42.8733 -72.2417 278° West 412 474 25,300 850 Climbing Boston Center
Sun 08:43:54 PM 42.8944 -72.4117 280° West 417 480 26,300 1,000 Climbing Boston Center
Sun 08:44:54 PM 42.9067 -72.5678 276° West 417 480 27,300 1,050 Climbing Boston Center
Sun 08:45:54 PM 42.9147 -72.7178 274° West 417 480 28,400 1,100 Climbing Boston Center
Sun 08:46:54 PM 42.9269 -72.8683 276° West 411 473 29,500 1,200 Climbing Boston Center
Sun 08:47:54 PM 42.9450 -73.0386 278° West 404 465 30,800 1,200 Climbing Boston Center
Sun 08:48:54 PM 42.9564 -73.1833 276° West 404 465 31,900 600 Climbing Boston Center
Sun 08:49:54 PM 42.9681 -73.3311 276° West 398 458 32,000 50 Climbing Boston Center
Sun 08:50:54 PM 42.9731 -73.4617 273° West 398 458 32,000  Level Boston Center
Sun 08:51:54 PM 42.9861 -73.6150 277° West 398 458 32,000 -50 Level Boston Center
Sun 08:52:54 PM 42.9992 -73.7658 277° West 408 470 31,900  Descending Boston Center
Sun 08:53:54 PM 43.0097 -73.9136 276° West 408 470 32,000 50 Climbing Boston Center
Sun 08:54:54 PM 43.0225 -74.0617 277° West 408 470 32,000  Level Boston Center
Sun 08:55:54 PM 43.0328 -74.2125 275° West 403 464 32,000 -50 Level Boston Center
Sun 08:56:54 PM 43.0450 -74.3578 277° West 403 464 31,900  Descending Boston Center
Sun 08:57:54 PM 43.0528 -74.5058 274° West 403 464 32,000 50 Climbing Boston Center
Sun 08:58:54 PM 43.0644 -74.6539 276° West 398 458 32,000  Level Boston Center
Sun 08:59:54 PM 43.0761 -74.8022 276° West 398 458 32,000  Level Boston Center
Sun 09:00:54 PM 43.0897 -74.9506 277° West 398 458 32,000  Level Boston Center
Sun 09:02:54 PM 43.1119 -75.2503 276° West 398 458 32,000  Level Boston Center
Sun 09:03:54 PM 43.1247 -75.3989 277° West 398 458 32,000  Level Boston Center
Sun 09:04:54 PM 43.1353 -75.5500 276° West 398 458 32,000  Level Boston Center
Sun 09:05:54 PM 43.1458 -75.6986 276° West 398 458 32,000  Level Boston Center
Sun 09:06:54 PM 43.1578 -75.8589 276° West 398 458 32,000  Level Boston Center
Sun 09:07:54 PM 43.1678 -76.0103 275° West 398 458 32,000 500 Level Boston Center
Sun 09:08:54 PM 43.1797 -76.1589 276° West 398 458 33,000 642 Climbing Boston Center
Sun 09:11:01 PM 43.1833 -76.4333 271° West 390 449 34,000 321 Climbing Toronto Center
Sun 09:12:01 PM 43.1833 -76.5833 270° West 390 449 34,000  Level Toronto Center
Sun 09:13:01 PM 43.2167 -76.7333 287° West 390 449 34,000  Level Toronto Center
Sun 09:14:01 PM 43.2167 -76.8667 270° West 390 449 34,000  Level Toronto Center
Sun 09:15:01 PM 43.2167 -77.0333 270° West 390 449 34,000  Level Toronto Center
Sun 09:16:01 PM 43.2333 -77.1667 280° West 380 437 34,000  Level Toronto Center
Sun 09:17:01 PM 43.2333 -77.3167 270° West 390 449 34,000  Level Toronto Center
Sun 09:18:01 PM 43.2500 -77.4667 279° West 390 449 34,000  Level Toronto Center
Sun 09:19:01 PM 43.2667 -77.6167 279° West 380 437 34,000  Level Toronto Center
Sun 09:20:01 PM 43.2667 -77.7500 270° West 390 449 34,000  Level Toronto Center
Sun 09:21:16 PM 43.2850 -77.9622 277° West 384 442 34,000  Level Cleveland Center
Sun 09:22:16 PM 43.2944 -78.1103 275° West 384 442 34,000  Level Cleveland Center
Sun 09:23:16 PM 43.3039 -78.2553 275° West 384 442 34,000  Level Cleveland Center
Sun 09:24:16 PM 43.3108 -78.4006 274° West 384 442 34,000  Level Cleveland Center
Sun 09:25:16 PM 43.3156 -78.5461 273° West 384 442 34,000  Level Cleveland Center
Sun 09:26:16 PM 43.3242 -78.6914 275° West 384 442 34,000  Level Cleveland Center
Sun 09:27:16 PM 43.3306 -78.8308 274° West 384 442 34,000  Level Cleveland Center
Sun 09:28:01 PM 43.3333 -78.9167 273° West 380 437 34,000  Level Toronto Center
Sun 09:29:01 PM 43.3333 -79.0667 270° West 380 437 34,000  Level Toronto Center
Sun 09:30:01 PM 43.3333 -79.2167 270° West 380 437 34,000  Level Toronto Center
Sun 09:31:01 PM 43.3333 -79.3500 270° West 380 437 34,000  Level Toronto Center
Sun 09:32:01 PM 43.3500 -79.5000 279° West 380 437 34,000  Level Toronto Center
Sun 09:33:01 PM 43.3500 -79.6333 270° West 380 437 34,000  Level Toronto Center
Sun 09:34:01 PM 43.3500 -79.8000 270° West 380 437 34,000  Level Toronto Center
Sun 09:35:01 PM 43.3667 -79.9333 280° West 380 437 34,000  Level Toronto Center
Sun 09:36:01 PM 43.3667 -80.1000 270° West 380 437 34,000  Level Toronto Center
Sun 09:37:01 PM 43.3667 -80.2333 270° West 380 437 34,000  Level Toronto Center
Sun 09:38:02 PM 43.3833 -80.3667 280° West 380 437 34,000  Level Toronto Center
Sun 09:39:02 PM 43.3833 -80.5000 270° West 380 437 34,000  Level Toronto Center
Sun 09:40:02 PM 43.3833 -80.6667 270° West 390 449 34,000  Level Toronto Center
Sun 09:41:02 PM 43.4000 -80.8000 280° West 380 437 34,000  Level Toronto Center
Sun 09:42:02 PM 43.3833 -80.9667 262° West 380 437 34,000  Level Toronto Center
Sun 09:43:02 PM 43.3833 -81.1000 270° West 380 437 34,000  Level Toronto Center
Sun 09:44:02 PM 43.4000 -81.2667 278° West 380 437 34,000  Level Toronto Center
Sun 09:45:02 PM 43.4000 -81.4000 270° West 380 437 34,000  Level Toronto Center
Sun 09:46:02 PM 43.4000 -81.5333 270° West 380 437 34,000  Level Toronto Center
Sun 09:47:02 PM 43.4167 -81.6833 279° West 380 437 34,000  Level Toronto Center
Sun 09:48:02 PM 43.4167 -81.8333 270° West 390 449 34,000  Level Toronto Center
Sun 09:49:02 PM 43.4000 -81.9667 260° West 390 449 34,000 150 Level Toronto Center
Sun 09:50:02 PM 43.4167 -82.1333 278° West 390 449 34,300 600 Climbing Toronto Center
Sun 09:51:02 PM 43.4167 -82.2667 270° West 390 449 35,200 850 Climbing Toronto Center
Sun 09:52:02 PM 43.4167 -82.4333 270° West 380 437 36,000 400 Climbing Toronto Center
Sun 09:53:02 PM 43.4333 -82.5667 280° West 370 426 36,000  Level Toronto Center
Sun 09:54:02 PM 43.4167 -82.7167 261° West 370 426 36,000  Level Toronto Center
Sun 09:55:02 PM 43.4167 -82.8500 270° West 370 426 36,000  Level Toronto Center
Sun 09:56:02 PM 43.4333 -83.0000 279° West 380 437 36,000  Level Toronto Center
Sun 09:57:02 PM 43.4333 -83.1500 270° West 380 437 36,000  Level Toronto Center
Sun 09:58:02 PM 43.4167 -83.2833 260° West 380 437 36,000  Level Toronto Center
Sun 09:59:02 PM 43.4167 -83.4500 270° West 390 449 36,000  Level Toronto Center
Sun 10:00:02 PM 43.4333 -83.5833 280° West 390 449 36,000  Level Toronto Center
Sun 10:01:02 PM 43.4167 -83.7500 262° West 400 460 36,000  Level Toronto Center
Sun 10:02:02 PM 43.4167 -83.9000 270° West 410 472 36,000  Level Toronto Center
Sun 10:03:16 PM 43.4375 -84.0794 279° West 412 474 36,000  Level Minneapolis Center
Sun 10:04:17 PM 43.4378 -84.2397 270° West 418 481 36,000  Level Minneapolis Center
Sun 10:05:19 PM 43.4375 -84.4025 270° West 424 488 36,000  Level Minneapolis Center
Sun 10:06:20 PM 43.4356 -84.6003 269° West 430 495 36,000  Level Minneapolis Center
Sun 10:07:22 PM 43.4361 -84.7658 270° West 434 499 36,000  Level Minneapolis Center
Sun 10:08:23 PM 43.4342 -84.9319 269° West 435 501 36,000  Level Minneapolis Center
Sun 10:09:24 PM 43.4322 -85.0997 269° West 438 504 36,000  Level Minneapolis Center
Sun 10:10:25 PM 43.4308 -85.2681 269° West 442 509 36,000  Level Minneapolis Center
Sun 10:11:31 PM 43.4294 -85.4364 269° West 443 510 36,000  Level Chicago Center
Sun 10:12:32 PM 43.4264 -85.6431 269° West 452 520 36,000  Level Chicago Center
Sun 10:13:33 PM 43.4244 -85.8128 269° West 450 518 36,000  Level Chicago Center
Sun 10:14:35 PM 43.4208 -85.9819 268° West 449 517 36,000  Level Chicago Center
Sun 10:15:36 PM 43.4186 -86.1539 269° West 454 522 36,000  Level Chicago Center
Sun 10:16:37 PM 43.4142 -86.3261 268° West 458 527 36,000  Level Chicago Center
Sun 10:17:38 PM 43.4106 -86.4964 268° West 452 520 36,000  Level Chicago Center
Sun 10:18:39 PM 43.4064 -86.7014 268° West 452 520 36,000  Level Chicago Center
Sun 10:19:41 PM 43.4017 -86.8744 268° West 456 525 36,000  Level Chicago Center
Sun 10:20:42 PM 43.3972 -87.0453 268° West 451 519 36,000  Level Chicago Center
Sun 10:21:43 PM 43.3925 -87.2183 268° West 455 524 36,000  Level Chicago Center
Sun 10:22:44 PM 43.3875 -87.3908 268° West 446 513 36,000  Level Chicago Center
Sun 10:23:45 PM 43.3811 -87.5628 267° West 449 517 36,000  Level Chicago Center
Sun 10:24:47 PM 43.3758 -87.7356 268° West 453 521 36,000  Level Chicago Center
Sun 10:25:48 PM 43.3689 -87.9064 267° West 449 517 36,000  Level Chicago Center
Sun 10:26:49 PM 43.3628 -88.0789 267° West 451 519 36,000  Level Chicago Center
Sun 10:27:50 PM 43.3558 -88.2528 267° West 454 522 36,000  Level Chicago Center
Sun 10:28:52 PM 43.3472 -88.4250 266° West 450 518 36,000  Level Chicago Center
Sun 10:29:53 PM 43.3406 -88.6042 267° West 453 521 36,000  Level Chicago Center
Sun 10:30:54 PM 43.3342 -88.7772 267° West 449 517 36,000  Level Chicago Center
Sun 10:31:55 PM 43.3269 -88.9494 267° West 451 519 36,000  Level Chicago Center
Sun 10:32:56 PM 43.3169 -89.1500 266° West 448 516 36,000  Level Chicago Center
Sun 10:33:58 PM 43.3094 -89.3208 267° West 448 516 36,000  Level Chicago Center
Sun 10:34:59 PM 43.3025 -89.4908 267° West 447 514 36,000  Level Chicago Center
Sun 10:36:00 PM 43.2903 -89.6644 265° West 454 522 36,000  Level Chicago Center
Sun 10:37:01 PM 43.2822 -89.8342 266° West 447 514 36,000  Level Chicago Center
Sun 10:38:02 PM 43.2722 -90.0067 266° West 451 519 36,000  Level Chicago Center
Sun 10:39:04 PM 43.2644 -90.1767 266° West 448 516 36,000  Level Chicago Center
Sun 10:40:05 PM 43.2556 -90.3444 266° West 448 516 36,000  Level Chicago Center
Sun 10:41:06 PM 43.2450 -90.5139 265° West 451 519 36,000  Level Chicago Center
Sun 10:42:07 PM 43.2347 -90.6825 265° West 450 518 36,000  Level Chicago Center
Sun 10:43:08 PM 43.2233 -90.8847 266° West 450 518 36,000  Level Chicago Center
Sun 10:44:10 PM 43.2133 -91.0528 265° West 449 517 36,000  Level Chicago Center
Sun 10:45:11 PM 43.2028 -91.2211 265° West 451 519 36,000  Level Chicago Center
Sun 10:46:12 PM 43.1914 -91.3886 265° West 449 517 36,000  Level Chicago Center
Sun 10:47:13 PM 43.1814 -91.5575 265° West 452 520 36,000  Level Chicago Center
Sun 10:48:14 PM 43.1697 -91.7244 265° West 449 517 36,000  Level Chicago Center
Sun 10:49:16 PM 43.1553 -91.9150 264° West 445 512 36,000  Level Chicago Center
Sun 10:50:17 PM 43.1431 -92.0892 265° West 446 513 36,000  Level Chicago Center
Sun 10:51:18 PM 43.1306 -92.2533 264° West 440 506 36,000  Level Chicago Center
Sun 10:51:53 PM 43.1247 -92.3536 265° West 444 511 36,000  Level Minneapolis Center
Sun 10:52:55 PM 43.1111 -92.5203 264° West 445 512 36,000  Level Minneapolis Center
Sun 10:53:56 PM 43.0983 -92.6872 264° West 448 516 36,000  Level Minneapolis Center
Sun 10:54:57 PM 43.0856 -92.8508 264° West 441 507 36,000  Level Minneapolis Center
Sun 10:55:58 PM 43.0717 -93.0158 263° West 441 507 36,000  Level Minneapolis Center
Sun 10:56:59 PM 43.0542 -93.2158 263° West 444 511 36,000  Level Minneapolis Center
Sun 10:58:00 PM 43.0383 -93.3819 263° West 445 512 36,000  Level Minneapolis Center
Sun 10:59:01 PM 43.0247 -93.5497 264° West 449 517 36,000  Level Minneapolis Center
Sun 11:00:03 PM 43.0083 -93.7197 263° West 453 521 36,000  Level Minneapolis Center
Sun 11:01:04 PM 42.9950 -93.8886 264° West 454 522 36,000  Level Minneapolis Center
Sun 11:02:05 PM 42.9864 -94.0572 266° West 449 517 36,000  Level Minneapolis Center
Sun 11:03:06 PM 42.9758 -94.2244 265° West 448 516 36,000  Level Minneapolis Center
Sun 11:04:07 PM 42.9653 -94.3906 265° West 444 511 36,000  Level Minneapolis Center
Sun 11:05:08 PM 42.9542 -94.5575 265° West 445 512 36,000  Level Minneapolis Center
Sun 11:06:09 PM 42.9417 -94.7414 265° West 443 510 36,000  Level Minneapolis Center
Sun 11:07:11 PM 42.9275 -94.9439 265° West 445 512 36,000  Level Minneapolis Center
Sun 11:08:12 PM 42.9158 -95.1122 265° West 445 512 36,000  Level Minneapolis Center
Sun 11:09:13 PM 42.9036 -95.2808 264° West 447 514 36,000  Level Minneapolis Center
Sun 11:10:14 PM 42.8917 -95.4472 264° West 442 509 36,000  Level Minneapolis Center
Sun 11:11:15 PM 42.8792 -95.6122 264° West 440 506 36,000  Level Minneapolis Center
Sun 11:12:16 PM 42.8664 -95.7806 264° West 443 510 36,000  Level Minneapolis Center
Sun 11:13:17 PM 42.8536 -95.9481 264° West 444 511 36,000  Level Minneapolis Center
Sun 11:14:18 PM 42.8403 -96.1147 264° West 443 510 36,000  Level Minneapolis Center
Sun 11:15:19 PM 42.8269 -96.2794 264° West 439 505 36,000  Level Minneapolis Center
Sun 11:16:20 PM 42.8125 -96.4417 263° West 434 499 36,000  Level Minneapolis Center
Sun 11:17:21 PM 42.7989 -96.6078 264° West 439 505 36,000  Level Minneapolis Center
Sun 11:18:22 PM 42.7853 -96.7742 264° West 441 507 36,000  Level Minneapolis Center
Sun 11:19:23 PM 42.7708 -96.9381 263° West 439 505 36,000  Level Minneapolis Center
Sun 11:20:25 PM 42.7536 -97.1378 263° West 442 509 36,000  Level Minneapolis Center
Sun 11:21:26 PM 42.7381 -97.3025 263° West 441 507 36,000  Level Minneapolis Center
Sun 11:22:27 PM 42.7239 -97.4692 263° West 443 510 36,000  Level Minneapolis Center
Sun 11:23:28 PM 42.7081 -97.6333 263° West 441 507 36,000  Level Minneapolis Center
Sun 11:24:29 PM 42.6922 -97.7958 263° West 436 502 36,000  Level Minneapolis Center
Sun 11:25:30 PM 42.6756 -97.9603 262° West 438 504 36,000  Level Minneapolis Center
Sun 11:26:31 PM 42.6600 -98.1231 263° West 436 502 36,000  Level Minneapolis Center
Sun 11:27:32 PM 42.6456 -98.2808 263° West 439 505 36,000  Level Minneapolis Center
Sun 11:28:33 PM 42.6281 -98.4431 262° West 436 502 36,000  Level Minneapolis Center
Sun 11:29:34 PM 42.6117 -98.6067 262° West 438 504 36,000  Level Minneapolis Center
Sun 11:30:35 PM 42.5919 -98.8058 262° West 444 511 36,000  Level Minneapolis Center
Sun 11:31:36 PM 42.5739 -98.9711 262° West 444 511 36,000  Level Minneapolis Center
Sun 11:32:37 PM 42.5558 -99.1364 262° West 444 511 36,000  Level Minneapolis Center
Sun 11:33:38 PM 42.5386 -99.3017 262° West 445 512 36,000  Level Minneapolis Center
Sun 11:34:11 PM 42.5278 -99.4014 262° West 445 512 36,000  Level Denver Center
Sun 11:35:13 PM 42.5094 -99.5647 261° West 441 507 36,000  Level Denver Center
Sun 11:36:14 PM 42.4914 -99.7283 262° West 439 505 36,000 293 Level Denver Center
Sun 11:37:16 PM 42.4722 -99.8906 261° West 441 507 36,600 634 Climbing Denver Center
Sun 11:38:17 PM 42.4547 -100.0497 262° West 438 504 37,300 689 Climbing Denver Center
Sun 11:39:18 PM 42.4328 -100.2297 261° West 433 498 38,000 341 Climbing Denver Center
Sun 11:40:20 PM 42.4153 -100.3839 261° West 435 501 38,000  Level Denver Center
Sun 11:41:21 PM 42.3933 -100.5681 261° West 443 510 38,000  Level Denver Center
Sun 11:42:22 PM 42.3747 -100.7197 261° West 434 499 38,000  Level Denver Center
Sun 11:43:24 PM 42.3564 -100.8756 261° West 437 503 38,000  Level Denver Center
Sun 11:44:25 PM 42.3333 -101.0556 260° West 437 503 38,000  Level Denver Center
Sun 11:45:26 PM 42.3139 -101.2114 260° West 440 506 38,000  Level Denver Center
Sun 11:46:28 PM 42.2911 -101.3906 260° West 438 504 38,000  Level Denver Center
Sun 11:47:29 PM 42.2719 -101.5444 260° West 437 503 38,000  Level Denver Center
Sun 11:48:30 PM 42.2508 -101.6983 260° West 438 504 38,000  Level Denver Center
Sun 11:49:31 PM 42.2281 -101.8775 260° West 437 503 38,000  Level Denver Center
Sun 11:50:32 PM 42.2075 -102.0317 260° West 438 504 38,000  Level Denver Center
Sun 11:51:34 PM 42.1831 -102.2117 260° West 438 504 38,000  Level Denver Center
Sun 11:52:35 PM 42.1633 -102.3569 260° West 440 506 38,000 49 Level Denver Center
Sun 11:53:36 PM 42.1381 -102.5389 259° West 441 507 38,100  Climbing Denver Center
Sun 11:54:37 PM 42.1167 -102.6928 259° West 437 503 38,000 -49 Descending Denver Center
Sun 11:55:39 PM 42.0953 -102.8467 259° West 437 503 38,000  Level Denver Center
Sun 11:56:40 PM 42.0692 -103.0269 259° West 440 506 38,000  Level Denver Center
Sun 11:57:41 PM 42.0464 -103.1814 259° West 440 506 38,000  Level Denver Center
Sun 11:58:42 PM 42.0206 -103.3614 259° West 438 504 38,000  Level Denver Center
Sun 11:59:55 PM 41.9981 -103.5169 259° West 441 507 38,000  Level Denver Center
Mon 12:00:57 AM 41.9661 -103.7256 258° West 444 511 38,000  Level Denver Center
Mon 12:01:58 AM 41.9433 -103.8819 259° West 445 512 38,000  Level Denver Center
Mon 12:02:59 AM 41.9189 -104.0375 258° West 444 511 38,000  Level Denver Center
Mon 12:04:00 AM 41.8911 -104.2211 259° West 448 516 38,000  Level Denver Center
Mon 12:05:01 AM 41.8669 -104.3772 258° West 446 513 38,000  Level Denver Center
Mon 12:06:02 AM 41.8428 -104.5339 258° West 447 514 38,000  Level Denver Center
Mon 12:07:04 AM 41.8142 -104.7156 258° West 445 512 38,000  Level Denver Center
Mon 12:08:05 AM 41.7894 -104.8731 258° West 449 517 38,000  Level Denver Center
Mon 12:09:06 AM 41.7639 -105.0286 258° West 447 514 38,000  Level Denver Center
Mon 12:10:07 AM 41.7342 -105.2086 258° West 444 511 38,000  Level Denver Center
Mon 12:11:08 AM 41.7086 -105.3619 257° West 443 510 38,000  Level Denver Center
Mon 12:12:09 AM 41.6833 -105.5172 258° West 444 511 38,000  Level Denver Center
Mon 12:13:10 AM 41.6531 -105.6964 257° West 443 510 38,000  Level Denver Center
Mon 12:14:12 AM 41.6272 -105.8506 257° West 443 510 38,000  Level Denver Center
Mon 12:15:13 AM 41.5967 -106.0308 257° West 446 513 38,000  Level Denver Center
Mon 12:16:26 AM 41.5697 -106.1844 257° West 445 512 38,000  Level Denver Center
Mon 12:17:27 AM 41.5333 -106.3900 257° West 446 513 38,000  Level Denver Center
Mon 12:18:28 AM 41.5086 -106.5383 257° West 449 517 38,000  Level Denver Center
Mon 12:19:29 AM 41.4750 -106.7206 256° West 453 521 38,000  Level Denver Center
Mon 12:20:43 AM 41.4431 -106.9011 257° West 449 517 38,000  Level Denver Center
Mon 12:21:44 AM 41.4108 -107.0822 257° West 450 518 38,000  Level Denver Center
Mon 12:22:45 AM 41.3828 -107.2361 256° West 448 516 38,000  Level Denver Center
Mon 12:23:46 AM 41.3544 -107.3906 256° West 449 517 38,000  Level Denver Center
Mon 12:24:47 AM 41.3219 -107.5672 256° West 442 509 38,000  Level Denver Center
Mon 12:25:48 AM 41.2936 -107.7197 256° West 444 511 38,000  Level Denver Center
Mon 12:26:49 AM 41.2642 -107.8719 256° West 444 511 38,000  Level Denver Center
Mon 12:27:50 AM 41.2306 -108.0497 256° West 446 513 38,000  Level Denver Center
Mon 12:29:03 AM 41.2014 -108.2028 256° West 445 512 38,000  Level Denver Center
Mon 12:30:05 AM 41.1614 -108.4061 255° West 444 511 38,000  Level Denver Center
Mon 12:30:46 AM 41.1414 -108.5089 256° West 445 512 38,000  Level Salt Lake Center
Mon 12:31:47 AM 41.1111 -108.6631 255° West 447 514 38,000  Level Salt Lake Center
Mon 12:32:48 AM 41.0758 -108.8433 256° West 450 518 38,000 49 Level Salt Lake Center
Mon 12:33:49 AM 41.0436 -108.9972 255° West 450 518 38,100  Climbing Salt Lake Center
Mon 12:34:50 AM 41.0128 -109.1506 255° West 448 516 38,000 -49 Descending Salt Lake Center
Mon 12:35:51 AM 40.9772 -109.3283 255° West 446 513 38,000  Level Salt Lake Center
Mon 12:36:52 AM 40.9464 -109.4808 255° West 447 514 38,000  Level Salt Lake Center
Mon 12:37:53 AM 40.9150 -109.6331 255° West 447 514 38,000  Level Salt Lake Center
Mon 12:38:54 AM 40.8778 -109.8103 255° West 447 514 38,000  Level Salt Lake Center
Mon 12:39:55 AM 40.8464 -109.9622 255° West 447 514 38,000  Level Salt Lake Center
Mon 12:40:56 AM 40.8131 -110.1228 255° West 448 516 38,000  Level Salt Lake Center
Mon 12:41:57 AM 40.7764 -110.2906 254° West 448 516 38,000  Level Salt Lake Center
Mon 12:42:58 AM 40.7431 -110.4425 254° West 450 518 38,000  Level Salt Lake Center
Mon 12:43:58 AM 40.7086 -110.6078 255° West 447 514 38,000  Level Salt Lake Center
Mon 12:44:59 AM 40.6750 -110.7672 255° West 450 518 38,000 49 Level Salt Lake Center
Mon 12:46:00 AM 40.6392 -110.9269 254° West 453 521 38,100  Climbing Salt Lake Center
Mon 12:47:01 AM 40.6053 -111.0856 254° West 450 518 38,000 -49 Descending Salt Lake Center
Mon 12:48:02 AM 40.5697 -111.2436 254° West 449 517 38,000  Level Salt Lake Center
Mon 12:49:03 AM 40.5344 -111.4011 254° West 448 516 38,000  Level Salt Lake Center
Mon 12:50:04 AM 40.4994 -111.5597 254° West 450 518 38,000  Level Salt Lake Center
Mon 12:51:05 AM 40.4619 -111.7200 253° West 457 526 38,000  Level Salt Lake Center
Mon 12:52:06 AM 40.4250 -111.8797 253° West 457 526 38,000  Level Salt Lake Center
Mon 12:53:06 AM 40.3897 -112.0403 254° West 454 522 38,000  Level Salt Lake Center
Mon 12:54:07 AM 40.3528 -112.1989 253° West 452 520 38,000  Level Salt Lake Center
Mon 12:55:08 AM 40.3164 -112.3547 253° West 447 514 38,000  Level Salt Lake Center
Mon 12:56:09 AM 40.2800 -112.5114 253° West 448 516 38,000  Level Salt Lake Center
Mon 12:57:10 AM 40.2442 -112.6678 253° West 448 516 38,000  Level Salt Lake Center
Mon 12:58:11 AM 40.2008 -112.8228 250° West 455 524 38,000  Level Salt Lake Center
Mon 12:59:11 AM 40.1553 -112.9761 249° West 453 521 38,000  Level Salt Lake Center
Mon 01:00:12 AM 40.1011 -113.1561 249° West 442 509 38,000  Level Salt Lake Center
Mon 01:01:13 AM 40.0575 -113.3100 250° West 451 519 38,000  Level Salt Lake Center
Mon 01:02:14 AM 40.0131 -113.4628 249° West 452 520 38,000  Level Salt Lake Center
Mon 01:03:15 AM 39.9686 -113.6175 249° West 455 524 38,000  Level Salt Lake Center
Mon 01:04:16 AM 39.9233 -113.7706 249° West 453 521 38,000  Level Salt Lake Center
Mon 01:05:16 AM 39.8789 -113.9233 249° West 452 520 38,000  Level Salt Lake Center
Mon 01:06:17 AM 39.8333 -114.0744 249° West 450 518 38,000  Level Salt Lake Center
Mon 01:07:18 AM 39.7886 -114.2258 249° West 449 517 38,000  Level Salt Lake Center
Mon 01:08:19 AM 39.7428 -114.3775 249° West 450 518 38,000  Level Salt Lake Center
Mon 01:09:20 AM 39.6981 -114.5225 248° West 451 519 38,000  Level Salt Lake Center
Mon 01:10:20 AM 39.6467 -114.6939 249° West 455 524 38,000  Level Salt Lake Center
Mon 01:11:21 AM 39.6031 -114.8392 249° West 453 521 38,000  Level Salt Lake Center
Mon 01:12:22 AM 39.5569 -114.9858 248° West 455 524 38,000  Level Salt Lake Center
Mon 01:13:23 AM 39.5064 -115.1525 249° West 449 517 38,000  Level Salt Lake Center
Mon 01:14:24 AM 39.4617 -115.2958 248° West 449 517 38,000  Level Salt Lake Center
Mon 01:15:24 AM 39.4150 -115.4397 247° West 450 518 38,000  Level Salt Lake Center
Mon 01:16:25 AM 39.3636 -115.6053 248° West 446 513 38,000  Level Salt Lake Center
Mon 01:17:26 AM 39.3183 -115.7478 248° West 447 514 38,000  Level Salt Lake Center
Mon 01:18:27 AM 39.2728 -115.8911 248° West 448 516 38,000  Level Salt Lake Center
Mon 01:19:28 AM 39.2197 -116.0564 248° West 446 513 38,000  Level Salt Lake Center
Mon 01:20:28 AM 39.1756 -116.1969 248° West 443 510 38,000  Level Salt Lake Center
Mon 01:21:29 AM 39.1289 -116.3375 247° West 444 511 38,000  Level Salt Lake Center
Mon 01:22:30 AM 39.0803 -116.4892 248° West 444 511 38,000  Level Salt Lake Center
Mon 01:23:31 AM 39.0328 -116.6342 247° West 443 510 38,000  Level Salt Lake Center
Mon 01:24:31 AM 38.9861 -116.7783 247° West 439 505 38,000  Level Salt Lake Center
Mon 01:25:11 AM 38.9472 -116.8933 247° West 438 504 38,000  Level Oakland Center
Mon 01:26:12 AM 38.9003 -117.0383 247° West 441 507 38,000  Level Oakland Center
Mon 01:27:13 AM 38.8519 -117.1797 246° West 437 503 38,000  Level Oakland Center
Mon 01:28:14 AM 38.8053 -117.3233 247° West 439 505 38,000  Level Oakland Center
Mon 01:29:14 AM 38.7572 -117.4658 247° West 439 505 38,000  Level Oakland Center
Mon 01:30:15 AM 38.7094 -117.6103 247° West 442 509 38,000  Level Oakland Center
Mon 01:31:16 AM 38.6497 -117.7569 242° Southwest 437 503 38,000  Level Oakland Center
Mon 01:32:17 AM 38.5822 -117.8731 233° Southwest 438 504 38,000  Level Oakland Center
Mon 01:33:17 AM 38.5172 -118.0039 238° Southwest 439 505 38,000  Level Oakland Center
Mon 01:34:18 AM 38.4467 -118.1522 239° Southwest 444 511 38,000  Level Oakland Center
Mon 01:35:19 AM 38.3831 -118.2878 239° Southwest 443 510 38,000  Level Oakland Center
Mon 01:36:20 AM 38.3264 -118.4292 243° Southwest 450 518 38,000  Level Oakland Center
Mon 01:37:20 AM 38.2853 -118.5800 251° West 456 525 38,000 50 Level Oakland Center
Mon 01:38:21 AM 38.2444 -118.7294 251° West 451 519 38,100  Climbing Oakland Center
Mon 01:39:22 AM 38.2053 -118.8789 252° West 445 512 38,000 -50 Descending Oakland Center
Mon 01:40:22 AM 38.1647 -119.0250 251° West 440 506 38,000  Level Oakland Center
Mon 01:41:23 AM 38.1253 -119.1667 251° West 444 511 38,000  Level Oakland Center
Mon 01:42:24 AM 38.0847 -119.3158 251° West 447 514 38,000  Level Oakland Center
Mon 01:43:24 AM 38.0419 -119.4647 250° West 448 516 38,000  Level Oakland Center
Mon 01:44:25 AM 38.0047 -119.6108 252° West 440 506 38,000  Level Oakland Center
Mon 01:45:26 AM 37.9503 -119.7872 249° West 445 512 38,000 -198 Level Oakland Center
Mon 01:46:26 AM 37.9128 -119.9319 252° West 436 502 37,600 -1,488 Descending Oakland Center
Mon 01:47:27 AM 37.8994 -120.0844 264° West 438 504 35,000 -2,705 Descending Oakland Center
Mon 01:48:28 AM 37.8911 -120.2417 266° West 445 512 32,100 -2,777 Descending Oakland Center
Mon 01:49:28 AM 37.8803 -120.4017 265° West 453 521 29,400 -3,074 Descending Oakland Center
Mon 01:50:29 AM 37.8714 -120.5658 266° West 463 533 25,900 -3,295 Descending Oakland Center
Mon 01:51:30 AM 37.8611 -120.7353 266° West 477 549 22,700 -3,174 Descending Oakland Center
Mon 01:52:30 AM 37.8347 -120.8939 258° West 462 532 19,500 -3,447 Descending Oakland Center
Mon 01:53:04 AM 37.8167 -120.9833 256° West 456 525 17,300 -3,255 Descending Northern Cal TRACON
Mon 01:54:04 AM 37.7833 -121.1333 254° West 447 514 14,400 -2,750 Descending Northern Cal TRACON
Mon 01:55:04 AM 37.7500 -121.2667 252° West 427 491 11,800 -1,850 Descending Northern Cal TRACON
Mon 01:56:04 AM 37.7167 -121.3833 250° West 364 419 10,700 -900 Descending Northern Cal TRACON
Mon 01:57:04 AM 37.7000 -121.5000 260° West 311 358 10,000 -1,095 Descending Northern Cal TRACON
Mon 01:58:10 AM 37.6667 -121.6167 250° West 298 343 8,400 -1,500 Descending Northern Cal TRACON
Mon 01:59:04 AM 37.6500 -121.7000 256° West 292 336 7,000 -1,500 Descending Northern Cal TRACON
Mon 02:00:10 AM 37.6333 -121.8000 258° West 276 318 5,400 -1,619 Descending Northern Cal TRACON
Mon 02:01:10 AM 37.6333 -121.9000 270° West 275 316 3,600 -950 Descending Northern Cal TRACON
Mon 02:02:10 AM 37.6333 -122.0000 270° West 271 312 3,500 -500 Descending Northern Cal TRACON
Mon 02:03:10 AM 37.6167 -122.0833 256° West 243 280 2,600 -947 Descending Northern Cal TRACON
Mon 02:04:04 AM 37.6500 -122.1333 310° West 166 191 1,700 -895 Descending Northern Cal TRACON
Mon 02:05:04 AM 37.6667 -122.1667 302° West 142 163 900 -750 Descending Northern Cal TRACON
Mon 02:06:04 AM 37.7000 -122.2167 310° West 130 150 200 -700 Descending Northern Cal TRACON
Mon 02:08:00 AM 37.7167 -122.2167 270° West  Level FlightAware Approximate

Login

Don't have an account? Register now (free) for customized features, flight alerts, and more!